Time;durP1;ratioP1;P1;durP2;ratioP2;P2;SDS_P1;SDS_P2;PMS_P1;PMS_P2;Temp;Humidity;BMP_temperature;BMP_pressure;BME280_temperature;BME280_humidity;BME280_pressure;Samples;Min_cycle;Max_cycle;Signal;HPM_P1;HPM_P2
2021/06/20 00:00:39;;;;;;;12.38;4.38;;;24.00;85.60;;;23.33;81.24;99745.13;5071169;28;20456;-76
2021/06/20 00:03:07;;;;;;;12.88;4.45;;;23.90;85.80;;;23.32;81.02;99714.88;5071087;28;20052;-76
2021/06/20 00:05:37;;;;;;;12.73;5.05;;;23.90;86.00;;;23.30;81.19;99698.50;5052968;28;20495;-76
2021/06/20 00:08:07;;;;;;;11.60;4.35;;;23.90;86.00;;;23.30;81.07;99692.13;5070376;28;20036;-76
2021/06/20 00:10:38;;;;;;;14.65;5.70;;;23.90;86.00;;;23.26;81.42;99675.22;5070141;28;20450;-76
2021/06/20 00:13:07;;;;;;;13.32;4.10;;;23.90;85.90;;;23.26;81.24;99664.09;5070737;28;20102;-76
2021/06/20 00:15:37;;;;;;;11.25;4.32;;;23.90;86.00;;;23.24;81.65;99671.91;5052921;28;20052;-76
2021/06/20 00:18:05;;;;;;;13.88;4.20;;;23.90;86.20;;;23.23;81.67;99664.69;5070482;28;20488;-76
2021/06/20 00:20:35;;;;;;;11.45;4.30;;;23.90;86.30;;;23.17;82.04;99660.28;5070657;28;20126;-76
2021/06/20 00:23:03;;;;;;;9.77;4.50;;;23.90;86.10;;;23.11;82.22;99650.34;5082550;28;20040;-76
2021/06/20 00:25:30;;;;;;;11.68;4.53;;;23.90;86.20;;;23.13;82.33;99645.34;5090732;28;20075;-76
2021/06/20 00:27:57;;;;;;;12.32;4.00;;;23.80;86.00;;;23.15;82.19;99640.31;5090505;28;20075;-76
2021/06/20 00:30:29;;;;;;;10.35;4.40;;;23.80;86.30;;;23.10;82.51;99632.06;5090517;28;20033;-76
2021/06/20 00:32:58;;;;;;;9.48;4.53;;;23.80;86.10;;;23.10;81.90;99615.41;5090892;28;20072;-76
2021/06/20 00:35:26;;;;;;;9.32;4.40;;;23.80;86.50;;;23.12;82.23;99613.16;5090596;28;20071;-76
2021/06/20 00:37:55;;;;;;;14.98;5.38;;;23.80;86.50;;;23.12;82.12;99616.75;5090395;28;20036;-76
2021/06/20 00:40:23;;;;;;;9.00;4.78;;;23.80;86.80;;;23.11;81.96;99628.13;5090291;28;20234;-76
2021/06/20 00:42:50;;;;;;;10.38;4.45;;;23.70;86.70;;;23.10;82.18;99626.50;5072470;28;20079;-76
2021/06/20 00:45:21;;;;;;;10.70;4.60;;;23.70;87.10;;;23.07;82.37;99627.06;5090386;28;20044;-76
2021/06/20 00:47:50;;;;;;;16.30;5.18;;;23.70;87.00;;;23.07;82.56;99630.66;5090160;28;20044;-76
2021/06/20 00:50:17;;;;;;;10.75;4.35;;;23.70;86.80;;;23.06;82.78;99625.44;5090211;28;20068;-76
2021/06/20 00:52:46;;;;;;;11.68;3.92;;;23.60;86.90;;;23.00;82.36;99622.66;5090418;28;20043;-76
2021/06/20 00:55:14;;;;;;;9.80;4.43;;;23.70;86.70;;;22.97;82.90;99605.75;5090272;28;20040;-76
2021/06/20 00:57:42;;;;;;;9.40;4.30;;;23.60;86.60;;;22.98;82.78;99580.50;5071772;28;20050;-76
2021/06/20 01:00:12;;;;;;;10.80;4.00;;;23.70;87.10;;;22.99;82.47;99565.47;5090300;28;20109;-77
2021/06/20 01:02:39;;;;;;;12.88;4.25;;;23.70;86.90;;;22.97;82.83;99561.34;5090154;28;20484;-76
2021/06/20 01:05:10;;;;;;;12.02;4.30;;;23.60;87.00;;;22.97;82.78;99573.25;5090261;28;20081;-76
2021/06/20 01:07:38;;;;;;;9.57;4.10;;;23.60;87.00;;;22.95;82.38;99569.97;5089791;28;20064;-76
2021/06/20 01:10:08;;;;;;;11.25;3.90;;;23.60;87.00;;;22.89;82.50;99565.56;5090092;28;20040;-76
2021/06/20 01:12:35;;;;;;;17.33;4.50;;;23.60;86.80;;;22.86;82.60;99560.59;5089625;28;20063;-76
2021/06/20 01:15:05;;;;;;;11.48;3.38;;;23.50;87.00;;;22.89;82.63;99553.66;5071771;28;20083;-76
2021/06/20 01:17:32;;;;;;;12.07;4.53;;;23.50;86.90;;;22.87;82.27;99559.50;5089246;28;20063;-76
2021/06/20 01:19:59;;;;;;;10.43;3.75;;;23.50;86.60;;;22.85;82.45;99561.72;5089512;28;20118;-76
2021/06/20 01:22:31;;;;;;;14.25;3.97;;;23.50;86.80;;;22.78;82.47;99559.28;5089720;28;20282;-76
2021/06/20 01:25:01;;;;;;;8.55;3.15;;;23.50;86.70;;;22.79;82.09;99562.88;5089773;28;20071;-76
2021/06/20 01:27:34;;;;;;;8.23;2.92;;;23.50;86.40;;;22.73;82.18;99561.25;5089410;28;20101;-76
2021/06/20 01:30:04;;;;;;;10.98;3.50;;;23.40;86.20;;;22.74;82.02;99568.47;5054669;28;20071;-76
2021/06/20 01:32:32;;;;;;;8.90;3.30;;;23.40;86.40;;;22.74;82.08;99568.47;5047950;28;20512;-76
2021/06/20 01:35:00;;;;;;;10.35;3.42;;;23.40;86.60;;;22.70;81.87;99554.34;5049355;28;20408;-76
2021/06/20 01:37:29;;;;;;;12.57;3.53;;;23.40;86.40;;;22.69;81.69;99552.69;5049126;28;20037;-76
2021/06/20 01:39:57;;;;;;;11.57;4.18;;;23.30;86.40;;;22.64;81.96;99553.56;5049214;28;20061;-76
2021/06/20 01:42:24;;;;;;;6.85;2.70;;;23.30;86.50;;;22.62;82.03;99543.88;5049121;28;20045;-77
2021/06/20 01:44:56;;;;;;;6.85;2.95;;;23.20;86.30;;;22.63;82.19;99538.03;5049459;28;20118;-76
2021/06/20 01:47:25;;;;;;;13.70;2.75;;;23.30;86.80;;;22.59;81.90;99527.81;5048989;28;20045;-76
2021/06/20 01:49:55;;;;;;;12.75;2.53;;;23.30;86.40;;;22.54;82.13;99520.38;5049124;28;20045;-76
2021/06/20 01:52:24;;;;;;;9.48;2.08;;;23.20;86.30;;;22.52;81.80;99516.19;5030975;28;20049;-76
2021/06/20 01:54:54;;;;;;;8.50;2.85;;;23.20;86.00;;;22.48;81.99;99510.41;5048904;28;20063;-76
2021/06/20 01:57:24;;;;;;;12.18;2.65;;;23.20;86.00;;;22.49;81.67;99503.75;5048856;28;20041;-76
2021/06/20 01:59:52;;;;;;;7.80;2.10;;;23.20;86.50;;;22.47;81.84;99508.75;5049205;28;20106;-76
2021/06/20 02:02:21;;;;;;;6.57;2.67;;;23.10;86.50;;;22.47;81.48;99510.72;5048862;28;20047;-76
2021/06/20 02:04:50;;;;;;;9.27;2.65;;;23.10;86.60;;;22.44;81.19;99496.28;5031127;28;20140;-76
2021/06/20 02:07:17;;;;;;;9.00;2.40;;;23.10;86.60;;;22.45;81.90;99497.13;5030365;28;20037;-77
2021/06/20 02:09:45;;;;;;;9.10;2.00;;;23.10;86.60;;;22.45;81.72;99508.22;5049029;28;20102;-76
2021/06/20 02:12:16;;;;;;;10.05;2.38;;;23.10;86.80;;;22.45;81.76;99511.00;5048868;28;20135;-76
2021/06/20 02:14:44;;;;;;;;;;;23.00;86.80;;;22.45;81.56;99505.44;5031602;28;20092;-76
2021/06/20 02:17:24;;;;;;;10.63;2.20;;;23.00;87.00;;;22.43;81.55;99511.28;5030662;28;19924;-76
2021/06/20 02:19:53;;;;;;;6.53;2.42;;;23.00;87.10;;;22.45;81.29;99516.53;5048916;28;20103;-76
2021/06/20 02:22:21;;;;;;;8.40;2.55;;;23.00;87.20;;;22.44;81.91;99512.09;5033209;28;20048;-76
2021/06/20 02:24:49;;;;;;;8.43;2.85;;;23.00;87.60;;;22.41;81.98;99505.19;5048913;28;20098;-76
2021/06/20 02:27:18;;;;;;;13.23;2.97;;;23.00;87.60;;;22.39;81.96;99501.03;5048574;28;20455;-76
2021/06/20 02:29:49;;;;;;;8.57;2.75;;;22.90;87.90;;;22.38;82.28;99500.22;5031033;28;20404;-76
2021/06/20 02:32:17;;;;;;;9.20;3.13;;;22.90;87.90;;;22.37;82.53;99514.34;5031850;28;20072;-76
2021/06/20 02:34:45;;;;;;;12.40;3.20;;;23.00;87.90;;;22.37;82.51;99517.13;5052695;28;20037;-76
2021/06/20 02:37:13;;;;;;;8.15;3.08;;;23.00;87.90;;;22.37;82.58;99515.22;5052395;28;20037;-76
2021/06/20 02:39:41;;;;;;;9.30;2.92;;;22.90;88.00;;;22.36;82.61;99523.81;5052622;28;20049;-76
2021/06/20 02:42:10;;;;;;;8.30;2.92;;;22.90;88.10;;;22.32;82.67;99533.81;5052689;28;20098;-76
2021/06/20 02:44:39;;;;;;;7.35;2.88;;;22.90;87.90;;;22.33;82.63;99549.31;5052545;28;20441;-76
2021/06/20 02:47:08;;;;;;;10.77;2.90;;;22.90;88.20;;;22.34;82.93;99556.53;5052129;28;20063;-76
2021/06/20 02:49:37;;;;;;;12.82;2.80;;;22.90;88.30;;;22.33;82.54;99557.63;5052376;28;20385;-76
2021/06/20 02:52:06;;;;;;;8.60;3.22;;;22.90;88.20;;;22.34;82.85;99570.41;5052274;28;20492;-76
2021/06/20 02:54:34;;;;;;;11.98;3.13;;;23.00;88.70;;;22.31;82.97;99582.03;5052196;28;20045;-76
2021/06/20 02:57:01;;;;;;;10.07;3.08;;;22.90;88.60;;;22.30;83.14;99592.31;5052089;28;20550;-76
2021/06/20 02:59:28;;;;;;;10.68;2.90;;;22.90;88.70;;;22.27;83.27;99605.91;5052219;28;20041;-76
2021/06/20 03:01:57;;;;;;;13.52;3.00;;;22.90;88.70;;;22.23;83.85;99602.84;5051982;28;20036;-76
2021/06/20 03:04:24;;;;;;;15.88;3.58;;;22.90;88.70;;;22.21;83.86;99599.53;5052359;28;20457;-76
2021/06/20 03:06:51;;;;;;;11.38;3.40;;;22.90;88.50;;;22.17;83.45;99593.72;5051644;28;20052;-76
2021/06/20 03:09:19;;;;;;;11.05;3.72;;;22.90;88.40;;;22.18;83.94;99595.41;5052140;28;20052;-76
2021/06/20 03:11:46;;;;;;;13.75;3.60;;;22.90;88.40;;;22.12;83.70;99593.72;5052605;28;20123;-76
2021/06/20 03:14:14;;;;;;;11.15;3.40;;;22.90;88.10;;;22.17;83.69;99606.75;5073907;28;20048;-76
2021/06/20 03:16:43;;;;;;;13.00;3.47;;;22.90;88.30;;;22.06;84.19;99617.03;5091836;28;20499;-76
2021/06/20 03:19:13;;;;;;;13.60;3.65;;;22.90;88.30;;;22.09;84.28;99630.34;5092243;28;20074;-76
2021/06/20 03:21:41;;;;;;;21.73;4.07;;;22.80;88.60;;;22.07;84.37;99643.66;5091243;28;20064;-76
2021/06/20 03:24:09;;;;;;;11.30;3.42;;;22.80;88.20;;;22.02;84.59;99646.44;5071793;28;20043;-76
2021/06/20 03:26:37;;;;;;;12.80;3.58;;;22.80;88.20;;;21.98;84.74;99650.88;5071410;28;20044;-76
2021/06/20 03:29:05;;;;;;;17.25;4.15;;;22.80;88.30;;;21.97;84.96;99657.53;5071625;28;20102;-76
2021/06/20 03:31:33;;;;;;;12.10;3.42;;;22.80;88.30;;;21.93;85.27;99648.13;5053554;28;20040;-76
2021/06/20 03:34:01;;;;;;;18.88;3.97;;;22.80;88.20;;;21.93;85.14;99648.13;5071649;28;20041;-76
2021/06/20 03:36:30;;;;;;;15.43;3.58;;;22.80;88.20;;;21.95;85.03;99656.97;5068053;28;20048;-76
2021/06/20 03:38:57;;;;;;;12.85;3.35;;;22.80;88.30;;;21.94;84.78;99656.16;5053129;28;20070;-76
2021/06/20 03:41:25;;;;;;;11.32;3.47;;;22.80;88.40;;;21.95;85.20;99645.91;5071346;28;20492;-76
2021/06/20 03:43:53;;;;;;;12.13;3.75;;;22.80;88.30;;;21.96;85.03;99642.03;5071249;28;20123;-76
2021/06/20 03:46:20;;;;;;;14.52;3.83;;;22.80;88.30;;;21.94;85.05;99645.06;5053123;28;20051;-76
2021/06/20 03:48:48;;;;;;;11.23;3.78;;;22.80;88.40;;;21.93;85.39;99648.13;5071198;28;20086;-76
2021/06/20 03:51:16;;;;;;;13.35;3.40;;;22.80;88.40;;;21.94;85.14;99641.47;5071251;28;20123;-76
2021/06/20 03:53:46;;;;;;;14.48;4.00;;;22.80;88.30;;;21.92;85.11;99646.47;5071191;28;20048;-76
2021/06/20 03:56:13;;;;;;;7.95;3.47;;;22.80;88.30;;;21.92;84.74;99649.25;5069943;28;20056;-76
2021/06/20 03:58:41;;;;;;;14.13;4.05;;;22.70;88.10;;;21.90;85.19;99657.84;5070674;28;20098;-76
2021/06/20 04:01:08;;;;;;;13.57;4.07;;;22.70;88.10;;;21.92;84.91;99652.84;5070791;28;20496;-76
2021/06/20 04:03:37;;;;;;;19.27;4.00;;;22.80;88.10;;;21.91;84.92;99658.66;5052974;28;20138;-76
2021/06/20 04:06:05;;;;;;;12.15;3.88;;;22.80;87.90;;;21.90;84.90;99655.06;5070057;28;20428;-76
2021/06/20 04:08:32;;;;;;;12.27;3.50;;;22.80;87.90;;;21.88;84.96;99648.16;5052878;28;20052;-76
2021/06/20 04:11:01;;;;;;;12.77;3.90;;;22.80;87.50;;;21.90;84.52;99654.25;5070608;28;20079;-77
2021/06/20 04:13:28;;;;;;;11.45;3.67;;;22.80;87.60;;;21.86;84.40;99663.09;5070959;28;20045;-76
2021/06/20 04:15:56;;;;;;;7.68;3.53;;;22.80;87.70;;;21.83;84.56;99669.19;5070454;28;20079;-76
2021/06/20 04:18:23;;;;;;;11.68;3.90;;;22.80;87.70;;;21.81;84.74;99665.06;5070569;28;20489;-76
2021/06/20 04:20:50;;;;;;;8.40;3.80;;;22.70;87.80;;;21.79;84.66;99664.50;5070353;28;20048;-76
2021/06/20 04:23:17;;;;;;;9.48;3.20;;;22.70;87.80;;;21.79;84.27;99679.19;5070545;28;20044;-76
2021/06/20 04:25:45;;;;;;;10.43;3.42;;;22.70;87.60;;;21.76;84.47;99677.00;5070493;28;20076;-76
2021/06/20 04:28:16;;;;;;;8.80;3.13;;;22.70;87.80;;;21.72;84.01;99686.94;5069998;28;20326;-76
2021/06/20 04:30:43;;;;;;;9.05;2.90;;;22.70;87.20;;;21.63;84.32;99683.91;5070233;28;20098;-76
2021/06/20 04:33:10;;;;;;;9.13;3.00;;;22.70;87.20;;;21.70;84.21;99689.16;5070040;28;20127;-76
2021/06/20 04:35:39;;;;;;;6.65;2.90;;;22.70;87.20;;;21.72;83.93;99686.94;5070247;28;20049;-76
2021/06/20 04:38:06;;;;;;;6.43;2.58;;;22.70;86.90;;;21.76;83.90;99690.84;5069764;28;20064;-76
2021/06/20 04:40:35;;;;;;;5.82;2.63;;;22.80;86.70;;;21.75;83.81;99691.94;5070090;28;20095;-76
2021/06/20 04:43:08;;;;;;;5.82;2.40;;;22.80;86.20;;;21.74;83.91;99684.75;5070083;28;20238;-76
2021/06/20 04:45:36;;;;;;;7.47;2.72;;;23.00;85.60;;;21.78;84.36;99699.69;5052005;28;20083;-76
2021/06/20 04:48:05;;;;;;;7.20;2.50;;;23.10;85.50;;;21.81;83.86;99695.53;5069550;28;20071;-76
2021/06/20 04:50:33;;;;;;;8.60;2.50;;;23.20;84.70;;;21.85;84.22;99702.16;5051803;28;20051;-76
2021/06/20 04:53:00;;;;;;;6.32;2.05;;;23.30;84.70;;;21.89;84.35;99703.25;5070073;28;20052;-76
2021/06/20 04:55:27;;;;;;;7.75;2.40;;;23.50;83.90;;;21.92;84.07;99707.44;5069353;28;20553;-76
2021/06/20 04:57:55;;;;;;;8.38;2.33;;;23.50;83.70;;;21.94;82.93;99711.56;5069543;28;20609;-76
2021/06/20 05:00:22;;;;;;;7.03;2.70;;;23.60;82.80;;;21.97;83.63;99711.03;5069440;28;20111;-76
2021/06/20 05:02:51;;;;;;;6.47;2.75;;;23.70;82.80;;;22.06;83.19;99711.25;5069675;28;20048;-76
2021/06/20 05:05:18;;;;;;;6.25;2.47;;;23.90;81.90;;;22.10;82.73;99712.34;5069742;28;20467;-77
2021/06/20 05:07:45;;;;;;;9.15;2.53;;;23.90;81.70;;;22.16;82.95;99725.13;5069369;28;20664;-77
2021/06/20 05:10:13;;;;;;;8.60;2.53;;;24.00;81.40;;;22.18;83.02;99720.13;5069474;28;20090;-76
2021/06/20 05:12:40;;;;;;;7.28;2.67;;;24.10;81.30;;;22.25;82.31;99717.06;5028399;23;20054;-89
2021/06/20 05:15:09;;;;;;;8.13;2.40;;;24.10;80.60;;;22.33;82.28;99718.41;4990372;28;20046;-88
2021/06/20 05:17:37;;;;;;;7.18;2.60;;;24.20;80.70;;;22.33;82.03;99722.03;5005134;28;20050;-88
2021/06/20 05:20:07;;;;;;;6.32;2.45;;;24.20;80.00;;;22.39;82.27;99731.16;4990344;28;20538;-88
2021/06/20 05:22:34;;;;;;;5.97;2.60;;;24.30;80.10;;;22.45;81.83;99741.13;4989997;28;20046;-88
2021/06/20 05:25:02;;;;;;;11.02;2.90;;;24.30;80.00;;;22.49;81.52;99725.59;4990290;28;20080;-87
2021/06/20 05:27:29;;;;;;;6.65;2.42;;;24.30;80.20;;;22.52;82.24;99727.78;4989918;28;20141;-89
2021/06/20 05:29:56;;;;;;;10.80;2.22;;;24.30;80.60;;;22.54;81.16;99722.81;4988941;28;20406;-88
2021/06/20 05:32:23;;;;;;;5.93;2.45;;;24.40;79.90;;;22.57;80.62;99736.09;4990040;28;20093;-87
2021/06/20 05:34:50;;;;;;;4.03;2.22;;;24.50;79.30;;;22.58;80.84;99737.75;4989999;28;20133;-87
2021/06/20 05:37:19;;;;;;;5.68;2.47;;;24.60;78.90;;;22.61;80.74;99747.44;4989731;28;20050;-88
2021/06/20 05:39:46;;;;;;;7.80;2.92;;;24.70;78.60;;;22.66;80.44;99750.19;4989609;28;20104;-89
2021/06/20 05:42:14;;;;;;;12.95;2.45;;;24.90;77.90;;;22.65;78.48;99743.81;4989940;28;20046;-88
2021/06/20 05:44:41;;;;;;;5.22;2.28;;;25.20;75.10;;;22.73;79.92;99755.44;4970891;28;20565;-88
2021/06/20 05:47:08;;;;;;;6.35;2.40;;;25.30;75.00;;;22.79;79.12;99748.75;4970299;28;20054;-88
2021/06/20 05:49:35;;;;;;;6.80;2.63;;;25.40;74.40;;;22.81;78.53;99752.09;4970400;28;20073;-88
2021/06/20 05:52:03;;;;;;;9.35;2.47;;;25.70;73.30;;;22.90;78.77;99764.22;4970426;28;20396;-88
2021/06/20 05:54:32;;;;;;;5.38;2.30;;;26.90;69.50;;;23.01;79.42;99754.72;4970463;28;20532;-88
2021/06/20 05:56:59;;;;;;;5.35;2.47;;;27.50;68.00;;;23.15;78.64;99743.03;4970341;28;20043;-88
2021/06/20 05:59:27;;;;;;;6.93;2.15;;;28.30;64.30;;;23.34;77.17;99746.81;4970461;28;20090;-88
2021/06/20 06:01:54;;;;;;;7.90;2.40;;;29.40;61.50;;;23.53;76.85;99748.88;4970306;28;20645;-88
2021/06/20 06:04:24;;;;;;;5.80;2.15;;;31.40;55.20;;;23.79;75.75;99757.84;4970521;28;20047;-88
2021/06/20 06:06:51;;;;;;;7.35;2.58;;;33.10;49.90;;;24.01;74.23;99765.72;4985229;28;20059;-88
2021/06/20 06:09:18;;;;;;;6.63;2.20;;;34.50;46.10;;;24.22;73.77;99768.28;4974320;28;20035;-88
2021/06/20 06:11:47;;;;;;;7.60;2.47;;;35.40;43.40;;;24.51;71.93;99771.91;4974231;28;20046;-88
2021/06/20 06:14:14;;;;;;;5.80;2.33;;;36.10;41.00;;;24.69;72.02;99772.25;4974315;28;20137;-83
2021/06/20 06:16:41;;;;;;;8.35;2.70;;;35.30;41.90;;;24.79;70.80;99772.13;4973792;28;20566;-84
2021/06/20 06:19:09;;;;;;;9.73;2.42;;;34.20;44.40;;;24.88;70.73;99797.34;4992211;28;20046;-81
2021/06/20 06:21:37;;;;;;;6.95;2.58;;;32.60;48.00;;;24.82;70.24;99793.78;4993343;28;20517;-87
2021/06/20 06:24:05;;;;;;;8.18;2.83;;;31.20;51.80;;;24.73;70.00;99788.06;4993627;28;20100;-87
2021/06/20 06:26:32;;;;;;;5.97;2.42;;;30.30;54.60;;;24.68;70.25;99793.69;4993140;28;20105;-89
2021/06/20 06:29:01;;;;;;;9.25;2.40;;;29.80;55.70;;;24.62;70.39;99796.81;5008335;28;20091;-81
2021/06/20 06:31:28;;;;;;;8.57;2.60;;;28.90;58.20;;;24.51;70.38;99798.88;4993255;28;20078;-81
2021/06/20 06:33:55;;;;;;;5.03;2.47;;;28.00;61.30;;;24.36;69.28;99806.22;4993393;28;20043;-81
2021/06/20 06:36:23;;;;;;;5.00;2.67;;;27.30;63.20;;;24.24;69.34;99807.75;4993066;28;20521;-82
2021/06/20 06:38:50;;;;;;;6.82;3.05;;;26.80;64.40;;;24.10;70.56;99805.66;4993398;28;20058;-88
2021/06/20 06:41:18;;;;;;;5.32;2.67;;;26.40;66.90;;;24.03;70.99;99807.09;4991913;28;20453;-88
2021/06/20 06:43:46;;;;;;;7.80;2.78;;;26.10;68.50;;;23.94;72.10;99799.41;4993075;28;20168;-87
2021/06/20 06:46:15;;;;;;;7.95;2.75;;;26.00;69.60;;;23.89;71.59;99805.00;4992900;28;20494;-87
2021/06/20 06:48:42;;;;;;;6.60;2.83;;;25.80;69.50;;;23.83;70.14;99803.38;4992989;28;20042;-87
2021/06/20 06:51:09;;;;;;;8.55;3.08;;;25.70;69.70;;;23.76;71.36;99800.06;4993024;28;20050;-87
2021/06/20 06:53:37;;;;;;;7.63;3.20;;;25.70;70.10;;;23.73;71.51;99807.06;4991640;28;20054;-86
2021/06/20 06:56:05;;;;;;;5.47;2.67;;;25.60;70.10;;;23.71;72.14;99798.19;4992664;28;20038;-86
2021/06/20 06:58:32;;;;;;;5.75;2.50;;;25.70;69.70;;;23.73;72.19;99789.56;4992824;28;20066;-87
2021/06/20 07:00:59;;;;;;;6.93;2.80;;;25.90;69.50;;;23.70;72.26;99801.25;4992775;28;20054;-88
2021/06/20 07:03:30;;;;;;;6.88;2.83;;;26.00;69.80;;;23.72;73.23;99790.66;4993121;28;20053;-88
2021/06/20 07:05:57;;;;;;;;;;;26.00;70.00;;;23.71;71.38;99795.41;4993110;28;20047;-89
2021/06/20 07:08:25;;;;;;;7.05;2.63;;;26.00;68.50;;;23.71;71.56;99792.63;4992749;28;19922;-88
2021/06/20 07:10:52;;;;;;;4.03;2.55;;;25.90;69.10;;;23.74;72.40;99800.41;4992448;28;20120;-85
2021/06/20 07:13:19;;;;;;;8.18;2.80;;;26.00;69.70;;;23.74;72.25;99797.63;4992759;28;20529;-85
2021/06/20 07:15:47;;;;;;;7.22;2.20;;;26.00;69.30;;;23.71;72.85;99797.38;4991042;28;20073;-86
2021/06/20 07:18:15;;;;;;;6.28;2.70;;;26.00;69.80;;;23.74;73.32;99791.22;4991821;28;20074;-86
2021/06/20 07:20:43;;;;;;;7.55;2.60;;;26.10;70.00;;;23.73;73.68;99795.94;4992585;28;20581;-91
2021/06/20 07:23:11;;;;;;;6.32;2.58;;;26.00;70.30;;;23.73;72.12;99797.91;4992334;28;20042;-88
2021/06/20 07:25:38;;;;;;;8.38;2.95;;;25.90;69.30;;;23.64;72.13;99800.44;4990848;28;20522;-87
2021/06/20 07:28:06;;;;;;;5.65;2.42;;;25.80;70.20;;;23.59;72.45;99818.00;4992058;28;20125;-86
2021/06/20 07:30:34;;;;;;;16.55;2.70;;;25.70;70.00;;;23.53;72.08;99821.94;4992121;28;20418;-81
2021/06/20 07:33:01;;;;;;;6.60;2.00;;;25.60;70.50;;;23.50;71.99;99819.72;4992098;28;20101;-89
2021/06/20 07:35:29;;;;;;;7.47;2.25;;;25.50;70.70;;;23.51;71.51;99831.66;4991582;28;20042;-82
2021/06/20 07:37:57;;;;;;;6.70;2.20;;;25.40;71.10;;;23.52;72.67;99825.00;4983927;28;20116;-83
2021/06/20 07:40:25;;;;;;;10.90;2.10;;;25.40;71.40;;;23.47;72.19;99831.41;4999805;28;20046;-83
2021/06/20 07:42:52;;;;;;;8.70;2.33;;;25.40;70.60;;;23.54;73.22;99825.53;5011549;28;20052;-82
2021/06/20 07:45:20;;;;;;;4.63;2.30;;;25.50;71.70;;;23.56;73.98;99828.84;5026567;28;20045;-83
2021/06/20 07:47:48;;;;;;;5.72;2.28;;;25.50;72.10;;;23.56;73.41;99835.22;5011170;28;20421;-84
2021/06/20 07:50:16;;;;;;;4.72;2.13;;;25.60;72.00;;;23.64;74.01;99835.75;5011107;28;20041;-82
2021/06/20 07:52:43;;;;;;;6.38;2.47;;;25.70;71.80;;;23.69;74.30;99833.75;5011271;28;20104;-82
2021/06/20 07:55:14;;;;;;;5.15;2.20;;;25.70;71.90;;;23.73;72.84;99837.63;5011306;28;20133;-89
2021/06/20 07:57:41;;;;;;;5.32;2.58;;;25.80;71.20;;;23.76;73.73;99825.09;4995192;28;20039;-86
2021/06/20 08:00:11;;;;;;;5.07;2.00;;;25.80;71.60;;;23.81;72.74;99820.34;4993736;28;20038;-86
2021/06/20 08:02:42;;;;;;;6.18;1.95;;;25.90;70.10;;;23.83;73.65;99813.69;4991181;28;20377;-87
2021/06/20 08:05:17;;;;;;;6.32;2.28;;;26.00;71.70;;;23.85;72.06;99817.00;4991030;28;20045;-87
2021/06/20 08:07:44;;;;;;;4.25;2.30;;;26.10;69.50;;;23.93;73.49;99827.47;4990715;28;20056;-84
2021/06/20 08:10:14;;;;;;;4.15;1.95;;;26.20;70.30;;;23.96;71.96;99832.47;4990624;28;20062;-83
2021/06/20 08:12:42;;;;;;;3.35;1.80;;;26.30;69.70;;;23.97;72.04;99831.34;4990424;28;20108;-83
2021/06/20 08:15:10;;;;;;;4.55;1.67;;;26.30;69.00;;;23.96;69.02;99827.75;4991443;28;20043;-83
2021/06/20 08:17:38;;;;;;;3.15;1.70;;;26.20;65.90;;;23.97;69.51;99839.69;4988697;28;20493;-84
2021/06/20 08:20:07;;;;;;;6.65;2.28;;;26.20;67.10;;;23.99;68.79;99829.13;4991167;28;20081;-83
2021/06/20 08:22:35;;;;;;;6.72;1.88;;;26.10;66.40;;;24.02;70.83;99842.44;4989068;28;20046;-83
2021/06/20 08:25:02;;;;;;;6.07;2.20;;;26.10;68.30;;;24.06;70.65;99842.69;4987000;28;20046;-84
2021/06/20 08:27:31;;;;;;;6.00;1.88;;;26.20;67.80;;;24.10;71.05;99838.19;4988963;28;20125;-83
2021/06/20 08:29:58;;;;;;;4.05;1.92;;;26.20;68.90;;;24.13;69.13;99835.66;4989640;28;20050;-83
2021/06/20 08:32:29;;;;;;;6.22;2.08;;;26.30;66.50;;;24.11;67.99;99837.91;4990455;28;20512;-83
2021/06/20 08:34:57;;;;;;;4.07;1.70;;;26.30;65.60;;;24.13;66.91;99830.09;4988995;28;20046;-84
2021/06/20 08:37:24;;;;;;;5.13;1.63;;;26.30;65.10;;;24.11;68.48;99835.13;4990377;28;20042;-83
2021/06/20 08:39:51;;;;;;;10.80;2.33;;;26.30;65.60;;;24.15;67.59;99836.19;4990071;28;20525;-84
2021/06/20 08:42:19;;;;;;;3.67;1.77;;;26.30;65.30;;;24.22;70.35;99843.34;4990130;28;20166;-83
2021/06/20 08:44:48;;;;;;;3.50;1.63;;;26.30;67.30;;;24.24;68.53;99843.91;4990288;28;20046;-84
2021/06/20 08:47:17;;;;;;;5.40;1.88;;;26.40;65.50;;;24.24;66.83;99843.91;4986192;28;20066;-83
2021/06/20 08:49:45;;;;;;;10.40;2.15;;;26.40;64.80;;;24.26;68.77;99841.69;4989958;28;20557;-83
2021/06/20 08:52:14;;;;;;;5.85;1.65;;;26.30;66.50;;;24.23;65.33;99836.69;4989177;28;20062;-83
2021/06/20 08:55:00;;;;;;;5.10;1.77;;;26.40;63.30;;;24.22;66.23;99841.44;4989296;28;20094;-84
2021/06/20 08:57:32;;;;;;;6.43;1.75;;;26.30;64.10;;;24.24;65.06;99835.56;4989934;28;20144;-83
2021/06/20 09:00:01;;;;;;;4.03;1.50;;;26.30;63.50;;;24.25;66.47;99824.16;4988792;28;20042;-83
2021/06/20 09:02:31;;;;;;;5.15;1.50;;;26.30;64.50;;;24.27;64.95;99818.28;4990286;28;20113;-84
2021/06/20 09:05:00;;;;;;;5.40;1.95;;;26.30;63.40;;;24.30;65.50;99820.50;4990492;28;20601;-83
2021/06/20 09:07:34;;;;;;;3.67;1.50;;;26.30;64.80;;;24.32;64.92;99823.81;4991219;28;20050;-83
2021/06/20 09:10:16;;;;;;;4.20;1.48;;;26.30;63.60;;;24.35;66.32;99828.78;4974998;28;20124;-84
2021/06/20 09:12:50;;;;;;;3.60;1.33;;;26.40;65.10;;;24.31;63.78;99822.16;4989720;28;20084;-83
2021/06/20 09:15:22;;;;;;;3.95;1.75;;;26.30;62.70;;;24.35;64.96;99817.66;4989824;28;20041;-84
2021/06/20 09:17:53;;;;;;;4.63;1.70;;;26.40;63.50;;;24.38;65.37;99828.19;4988123;28;20100;-84
2021/06/20 09:20:33;;;;;;;4.50;1.50;;;26.40;63.40;;;24.42;63.67;99829.25;4978521;28;20654;-83
2021/06/20 09:23:03;;;;;;;6.18;1.80;;;26.40;61.80;;;24.43;65.71;99830.09;4999586;28;20037;-84
2021/06/20 09:25:31;;;;;;;3.72;1.50;;;26.40;63.50;;;24.40;63.08;99835.13;4989231;28;20046;-84
2021/06/20 09:28:01;;;;;;;3.75;1.48;;;26.50;61.60;;;24.40;65.25;99837.91;4989483;28;20056;-84
2021/06/20 09:30:34;;;;;;;4.87;1.77;;;26.50;63.30;;;24.39;63.84;99841.00;4990774;28;20612;-84
2021/06/20 09:33:05;;;;;;;5.32;1.55;;;26.50;62.00;;;24.39;63.21;99849.34;4989121;28;20037;-84
2021/06/20 09:35:43;;;;;;;3.57;1.30;;;26.50;61.60;;;24.36;61.67;99838.78;4989925;28;20042;-84
2021/06/20 09:38:16;;;;;;;3.45;1.48;;;26.60;61.40;;;24.35;63.32;99851.03;4989802;28;20051;-84
2021/06/20 09:40:43;;;;;;;3.85;1.60;;;26.60;61.50;;;24.36;62.02;99847.13;4989814;28;20034;-84
2021/06/20 09:43:15;;;;;;;4.45;1.42;;;26.60;60.80;;;24.31;60.88;99844.38;4989896;28;20042;-84
2021/06/20 09:45:47;;;;;;;3.40;1.20;;;26.50;60.00;;;24.32;63.68;99848.84;4988852;28;20505;-84
2021/06/20 09:48:29;;;;;;;3.05;1.40;;;26.50;61.50;;;24.30;60.44;99846.34;4990297;28;20046;-84
2021/06/20 09:50:58;;;;;;;3.33;1.20;;;26.50;59.10;;;24.34;62.39;99844.63;4989802;28;20113;-84
2021/06/20 09:53:34;;;;;;;4.47;1.60;;;26.50;60.10;;;24.36;62.72;99845.16;4989962;28;20046;-84
2021/06/20 09:56:19;;;;;;;3.55;1.33;;;26.60;60.60;;;24.40;64.03;99842.63;4989888;28;20047;-84
2021/06/20 09:58:56;;;;;;;4.47;1.50;;;26.60;61.30;;;24.40;64.11;99842.63;4989739;28;20100;-84
2021/06/20 10:01:26;;;;;;;4.75;1.50;;;26.60;61.10;;;24.37;61.22;99848.81;4989646;28;20078;-84
2021/06/20 10:03:54;;;;;;;3.95;1.38;;;26.60;60.20;;;24.39;60.70;99846.56;4989718;28;20038;-84
2021/06/20 10:06:21;;;;;;;7.63;1.55;;;26.60;59.60;;;24.46;64.17;99860.09;4989593;28;20101;-84
2021/06/20 10:08:49;;;;;;;3.75;1.45;;;26.60;61.60;;;24.41;61.32;99869.34;4989784;28;20457;-84
2021/06/20 10:11:18;;;;;;;3.17;1.35;;;26.60;59.80;;;24.36;60.65;99872.97;4987404;28;20486;-84
2021/06/20 10:13:46;;;;;;;4.18;1.50;;;26.50;59.40;;;24.39;63.77;99869.63;4989185;28;20148;-85
2021/06/20 10:16:23;;;;;;;2.92;1.40;;;26.60;61.50;;;24.46;64.15;99863.72;4986528;28;20042;-84
2021/06/20 10:18:56;;;;;;;3.92;1.40;;;26.70;60.40;;;24.55;64.92;99866.72;4983537;28;20077;-84
2021/06/20 10:21:37;;;;;;;4.28;1.33;;;26.80;62.00;;;24.59;61.60;99856.66;4987748;28;20096;-84
2021/06/20 10:24:14;;;;;;;2.30;1.08;;;26.80;59.50;;;24.55;60.32;99864.75;4980475;28;20050;-84